sensor_id;sensor_type;location;lat;lon;timestamp;P1;durP1;ratioP1;P2;durP2;ratioP2
39924;SDS011;25592;49.986;11.618;2024-01-16T00:02:27;168.63;;;59.80;;
39924;SDS011;25592;49.986;11.618;2024-01-16T00:05:13;168.30;;;59.50;;
39924;SDS011;25592;49.986;11.618;2024-01-16T00:07:58;169.60;;;60.33;;
39924;SDS011;25592;49.986;11.618;2024-01-16T00:10:44;167.13;;;57.93;;
39924;SDS011;25592;49.986;11.618;2024-01-16T00:13:31;170.37;;;59.07;;
39924;SDS011;25592;49.986;11.618;2024-01-16T00:16:17;165.13;;;58.93;;
39924;SDS011;25592;49.986;11.618;2024-01-16T00:19:03;167.73;;;60.43;;
39924;SDS011;25592;49.986;11.618;2024-01-16T00:21:49;169.63;;;59.40;;
39924;SDS011;25592;49.986;11.618;2024-01-16T00:24:35;173.53;;;60.70;;
39924;SDS011;25592;49.986;11.618;2024-01-16T00:27:21;163.77;;;57.50;;
39924;SDS011;25592;49.986;11.618;2024-01-16T00:30:06;167.13;;;60.83;;
39924;SDS011;25592;49.986;11.618;2024-01-16T00:32:52;167.00;;;60.07;;
39924;SDS011;25592;49.986;11.618;2024-01-16T00:35:38;157.03;;;57.30;;
39924;SDS011;25592;49.986;11.618;2024-01-16T00:38:23;180.17;;;63.00;;
39924;SDS011;25592;49.986;11.618;2024-01-16T00:41:08;163.43;;;60.90;;
39924;SDS011;25592;49.986;11.618;2024-01-16T00:43:54;166.53;;;59.97;;
39924;SDS011;25592;49.986;11.618;2024-01-16T00:46:39;166.80;;;60.43;;
39924;SDS011;25592;49.986;11.618;2024-01-16T00:49:25;167.47;;;60.60;;
39924;SDS011;25592;49.986;11.618;2024-01-16T00:52:10;169.80;;;64.87;;
39924;SDS011;25592;49.986;11.618;2024-01-16T00:54:56;166.83;;;60.90;;
39924;SDS011;25592;49.986;11.618;2024-01-16T00:57:41;166.77;;;59.73;;
39924;SDS011;25592;49.986;11.618;2024-01-16T01:00:26;165.33;;;58.43;;
39924;SDS011;25592;49.986;11.618;2024-01-16T01:03:15;168.07;;;60.10;;
39924;SDS011;25592;49.986;11.618;2024-01-16T01:08:49;165.43;;;59.27;;
39924;SDS011;25592;49.986;11.618;2024-01-16T01:11:35;169.37;;;60.33;;
39924;SDS011;25592;49.986;11.618;2024-01-16T01:14:20;171.13;;;61.13;;
39924;SDS011;25592;49.986;11.618;2024-01-16T01:17:06;169.17;;;60.20;;
39924;SDS011;25592;49.986;11.618;2024-01-16T01:19:51;167.77;;;59.97;;
39924;SDS011;25592;49.986;11.618;2024-01-16T01:22:37;168.17;;;60.13;;
39924;SDS011;25592;49.986;11.618;2024-01-16T01:25:22;167.07;;;59.80;;
39924;SDS011;25592;49.986;11.618;2024-01-16T01:28:08;169.13;;;61.70;;
39924;SDS011;25592;49.986;11.618;2024-01-16T01:30:54;168.47;;;61.37;;
39924;SDS011;25592;49.986;11.618;2024-01-16T01:33:39;168.53;;;61.13;;
39924;SDS011;25592;49.986;11.618;2024-01-16T01:36:25;168.40;;;60.30;;
39924;SDS011;25592;49.986;11.618;2024-01-16T01:39:11;167.93;;;60.47;;
39924;SDS011;25592;49.986;11.618;2024-01-16T01:41:57;170.47;;;60.53;;
39924;SDS011;25592;49.986;11.618;2024-01-16T01:44:42;168.20;;;60.30;;
39924;SDS011;25592;49.986;11.618;2024-01-16T01:47:28;166.47;;;59.80;;
39924;SDS011;25592;49.986;11.618;2024-01-16T01:50:15;168.57;;;62.17;;
39924;SDS011;25592;49.986;11.618;2024-01-16T01:53:01;168.27;;;59.43;;
39924;SDS011;25592;49.986;11.618;2024-01-16T01:55:47;171.67;;;59.00;;
39924;SDS011;25592;49.986;11.618;2024-01-16T01:58:33;169.40;;;57.93;;
39924;SDS011;25592;49.986;11.618;2024-01-16T02:01:19;166.23;;;59.93;;
39924;SDS011;25592;49.986;11.618;2024-01-16T02:04:06;161.20;;;59.63;;
39924;SDS011;25592;49.986;11.618;2024-01-16T02:06:53;166.03;;;59.50;;
39924;SDS011;25592;49.986;11.618;2024-01-16T02:09:39;169.57;;;60.90;;
39924;SDS011;25592;49.986;11.618;2024-01-16T02:12:24;165.50;;;60.17;;
39924;SDS011;25592;49.986;11.618;2024-01-16T02:15:10;168.73;;;60.87;;
39924;SDS011;25592;49.986;11.618;2024-01-16T02:17:57;169.17;;;62.00;;
39924;SDS011;25592;49.986;11.618;2024-01-16T02:20:43;169.13;;;60.77;;
39924;SDS011;25592;49.986;11.618;2024-01-16T02:23:29;166.97;;;61.17;;
39924;SDS011;25592;49.986;11.618;2024-01-16T02:26:16;162.23;;;58.67;;
39924;SDS011;25592;49.986;11.618;2024-01-16T02:29:02;164.13;;;58.47;;
39924;SDS011;25592;49.986;11.618;2024-01-16T02:31:52;166.90;;;60.57;;
39924;SDS011;25592;49.986;11.618;2024-01-16T02:34:38;166.93;;;62.33;;
39924;SDS011;25592;49.986;11.618;2024-01-16T02:37:24;165.83;;;60.23;;
39924;SDS011;25592;49.986;11.618;2024-01-16T02:40:10;162.53;;;59.10;;
39924;SDS011;25592;49.986;11.618;2024-01-16T02:42:55;164.83;;;60.53;;
39924;SDS011;25592;49.986;11.618;2024-01-16T02:45:41;164.67;;;60.07;;
39924;SDS011;25592;49.986;11.618;2024-01-16T02:48:27;161.60;;;58.00;;
39924;SDS011;25592;49.986;11.618;2024-01-16T02:51:12;163.13;;;59.23;;
39924;SDS011;25592;49.986;11.618;2024-01-16T02:53:57;163.37;;;60.23;;
39924;SDS011;25592;49.986;11.618;2024-01-16T02:56:43;164.67;;;61.10;;
39924;SDS011;25592;49.986;11.618;2024-01-16T02:59:28;164.43;;;61.60;;
39924;SDS011;25592;49.986;11.618;2024-01-16T03:02:15;165.30;;;62.70;;
39924;SDS011;25592;49.986;11.618;2024-01-16T03:05:02;162.70;;;59.37;;
39924;SDS011;25592;49.986;11.618;2024-01-16T03:07:50;162.93;;;60.37;;
39924;SDS011;25592;49.986;11.618;2024-01-16T03:10:35;166.83;;;62.70;;
39924;SDS011;25592;49.986;11.618;2024-01-16T03:13:21;162.80;;;59.77;;
39924;SDS011;25592;49.986;11.618;2024-01-16T03:16:06;161.47;;;59.70;;
39924;SDS011;25592;49.986;11.618;2024-01-16T03:18:52;161.10;;;58.27;;
39924;SDS011;25592;49.986;11.618;2024-01-16T03:21:37;165.17;;;59.50;;
39924;SDS011;25592;49.986;11.618;2024-01-16T03:24:23;168.20;;;61.30;;
39924;SDS011;25592;49.986;11.618;2024-01-16T03:27:09;162.90;;;60.13;;
39924;SDS011;25592;49.986;11.618;2024-01-16T03:29:54;165.20;;;59.40;;
39924;SDS011;25592;49.986;11.618;2024-01-16T03:32:41;165.40;;;58.33;;
39924;SDS011;25592;49.986;11.618;2024-01-16T03:35:26;166.27;;;59.80;;
39924;SDS011;25592;49.986;11.618;2024-01-16T03:38:12;169.13;;;61.63;;
39924;SDS011;25592;49.986;11.618;2024-01-16T03:40:57;168.17;;;60.83;;
39924;SDS011;25592;49.986;11.618;2024-01-16T03:43:44;166.60;;;59.97;;
39924;SDS011;25592;49.986;11.618;2024-01-16T03:46:29;163.77;;;58.70;;
39924;SDS011;25592;49.986;11.618;2024-01-16T03:49:15;163.67;;;60.80;;
39924;SDS011;25592;49.986;11.618;2024-01-16T03:52:00;166.43;;;60.63;;
39924;SDS011;25592;49.986;11.618;2024-01-16T03:54:46;167.13;;;64.20;;
39924;SDS011;25592;49.986;11.618;2024-01-16T03:57:31;165.70;;;59.37;;
39924;SDS011;25592;49.986;11.618;2024-01-16T04:00:17;164.60;;;59.10;;
39924;SDS011;25592;49.986;11.618;2024-01-16T04:03:02;166.90;;;61.97;;
39924;SDS011;25592;49.986;11.618;2024-01-16T04:05:48;168.50;;;61.13;;
39924;SDS011;25592;49.986;11.618;2024-01-16T04:08:34;164.27;;;59.37;;
39924;SDS011;25592;49.986;11.618;2024-01-16T04:11:19;165.07;;;60.53;;
39924;SDS011;25592;49.986;11.618;2024-01-16T04:14:05;164.90;;;59.90;;
39924;SDS011;25592;49.986;11.618;2024-01-16T04:16:50;168.77;;;60.07;;
39924;SDS011;25592;49.986;11.618;2024-01-16T04:19:36;164.63;;;59.60;;
39924;SDS011;25592;49.986;11.618;2024-01-16T04:22:21;168.20;;;66.10;;
39924;SDS011;25592;49.986;11.618;2024-01-16T04:25:07;165.07;;;60.17;;
39924;SDS011;25592;49.986;11.618;2024-01-16T04:27:52;165.67;;;59.67;;
39924;SDS011;25592;49.986;11.618;2024-01-16T04:30:38;166.77;;;60.47;;
39924;SDS011;25592;49.986;11.618;2024-01-16T04:33:23;167.00;;;61.63;;
39924;SDS011;25592;49.986;11.618;2024-01-16T04:36:09;166.90;;;60.00;;
39924;SDS011;25592;49.986;11.618;2024-01-16T04:38:54;165.87;;;60.73;;
39924;SDS011;25592;49.986;11.618;2024-01-16T04:41:43;168.03;;;61.77;;
39924;SDS011;25592;49.986;11.618;2024-01-16T04:44:29;165.37;;;58.17;;
39924;SDS011;25592;49.986;11.618;2024-01-16T04:47:14;169.00;;;61.67;;
39924;SDS011;25592;49.986;11.618;2024-01-16T04:50:00;164.87;;;56.90;;
39924;SDS011;25592;49.986;11.618;2024-01-16T04:52:45;166.83;;;60.83;;
39924;SDS011;25592;49.986;11.618;2024-01-16T04:55:31;167.40;;;59.07;;
39924;SDS011;25592;49.986;11.618;2024-01-16T04:58:16;167.47;;;60.40;;
39924;SDS011;25592;49.986;11.618;2024-01-16T05:01:02;162.03;;;59.87;;
39924;SDS011;25592;49.986;11.618;2024-01-16T05:03:47;149.27;;;56.10;;
39924;SDS011;25592;49.986;11.618;2024-01-16T05:06:33;154.30;;;58.47;;
39924;SDS011;25592;49.986;11.618;2024-01-16T05:09:20;150.53;;;58.13;;
39924;SDS011;25592;49.986;11.618;2024-01-16T05:12:05;152.10;;;57.33;;
39924;SDS011;25592;49.986;11.618;2024-01-16T05:14:51;153.47;;;58.87;;
39924;SDS011;25592;49.986;11.618;2024-01-16T05:17:37;152.93;;;57.20;;
39924;SDS011;25592;49.986;11.618;2024-01-16T05:20:23;154.13;;;58.40;;
39924;SDS011;25592;49.986;11.618;2024-01-16T05:23:09;154.30;;;58.60;;
39924;SDS011;25592;49.986;11.618;2024-01-16T05:25:54;152.93;;;57.80;;
39924;SDS011;25592;49.986;11.618;2024-01-16T05:28:40;154.43;;;57.90;;
39924;SDS011;25592;49.986;11.618;2024-01-16T05:31:25;153.23;;;57.50;;
39924;SDS011;25592;49.986;11.618;2024-01-16T05:34:11;154.80;;;58.97;;
39924;SDS011;25592;49.986;11.618;2024-01-16T05:36:56;155.00;;;59.30;;
39924;SDS011;25592;49.986;11.618;2024-01-16T05:39:42;161.77;;;64.10;;
39924;SDS011;25592;49.986;11.618;2024-01-16T05:42:28;154.07;;;58.10;;
39924;SDS011;25592;49.986;11.618;2024-01-16T05:45:14;151.33;;;57.53;;
39924;SDS011;25592;49.986;11.618;2024-01-16T05:47:59;147.60;;;58.07;;
39924;SDS011;25592;49.986;11.618;2024-01-16T05:50:45;145.67;;;56.70;;
39924;SDS011;25592;49.986;11.618;2024-01-16T05:53:31;150.30;;;56.63;;
39924;SDS011;25592;49.986;11.618;2024-01-16T05:56:16;147.37;;;56.63;;
39924;SDS011;25592;49.986;11.618;2024-01-16T05:59:02;148.43;;;58.53;;
39924;SDS011;25592;49.986;11.618;2024-01-16T06:01:47;145.50;;;55.20;;
39924;SDS011;25592;49.986;11.618;2024-01-16T06:04:34;145.67;;;55.50;;
39924;SDS011;25592;49.986;11.618;2024-01-16T06:07:19;148.00;;;57.53;;
39924;SDS011;25592;49.986;11.618;2024-01-16T06:10:05;145.17;;;55.60;;
39924;SDS011;25592;49.986;11.618;2024-01-16T06:12:51;150.27;;;57.33;;
39924;SDS011;25592;49.986;11.618;2024-01-16T06:15:36;153.47;;;60.20;;
39924;SDS011;25592;49.986;11.618;2024-01-16T06:18:22;153.07;;;58.63;;
39924;SDS011;25592;49.986;11.618;2024-01-16T06:21:08;154.80;;;58.43;;
39924;SDS011;25592;49.986;11.618;2024-01-16T06:23:55;145.50;;;56.70;;
39924;SDS011;25592;49.986;11.618;2024-01-16T06:26:41;155.50;;;58.00;;
39924;SDS011;25592;49.986;11.618;2024-01-16T06:29:27;145.10;;;56.03;;
39924;SDS011;25592;49.986;11.618;2024-01-16T06:32:19;153.40;;;62.40;;
39924;SDS011;25592;49.986;11.618;2024-01-16T06:35:05;154.10;;;57.57;;
39924;SDS011;25592;49.986;11.618;2024-01-16T06:37:51;158.70;;;59.07;;
39924;SDS011;25592;49.986;11.618;2024-01-16T06:40:36;161.33;;;60.70;;
39924;SDS011;25592;49.986;11.618;2024-01-16T06:43:22;161.83;;;60.10;;
39924;SDS011;25592;49.986;11.618;2024-01-16T06:46:08;164.37;;;61.33;;
39924;SDS011;25592;49.986;11.618;2024-01-16T06:48:54;168.37;;;60.37;;
39924;SDS011;25592;49.986;11.618;2024-01-16T06:51:39;168.40;;;59.57;;
39924;SDS011;25592;49.986;11.618;2024-01-16T06:54:25;166.90;;;59.23;;
39924;SDS011;25592;49.986;11.618;2024-01-16T06:57:11;166.07;;;58.10;;
39924;SDS011;25592;49.986;11.618;2024-01-16T06:59:56;158.57;;;57.37;;
39924;SDS011;25592;49.986;11.618;2024-01-16T07:02:41;152.80;;;58.47;;
39924;SDS011;25592;49.986;11.618;2024-01-16T07:05:30;152.07;;;57.97;;
39924;SDS011;25592;49.986;11.618;2024-01-16T07:08:16;153.27;;;59.03;;
39924;SDS011;25592;49.986;11.618;2024-01-16T07:11:01;153.93;;;58.97;;
39924;SDS011;25592;49.986;11.618;2024-01-16T07:13:46;158.03;;;59.27;;
39924;SDS011;25592;49.986;11.618;2024-01-16T07:16:32;157.70;;;58.80;;
39924;SDS011;25592;49.986;11.618;2024-01-16T07:19:17;155.07;;;60.13;;
39924;SDS011;25592;49.986;11.618;2024-01-16T07:22:02;154.63;;;59.40;;
39924;SDS011;25592;49.986;11.618;2024-01-16T07:24:48;161.37;;;61.93;;
39924;SDS011;25592;49.986;11.618;2024-01-16T07:27:33;164.10;;;59.23;;
39924;SDS011;25592;49.986;11.618;2024-01-16T07:30:19;166.30;;;59.60;;
39924;SDS011;25592;49.986;11.618;2024-01-16T07:33:04;165.10;;;61.67;;
39924;SDS011;25592;49.986;11.618;2024-01-16T07:35:50;157.60;;;59.47;;
39924;SDS011;25592;49.986;11.618;2024-01-16T07:38:35;161.80;;;59.70;;
39924;SDS011;25592;49.986;11.618;2024-01-16T07:41:21;158.97;;;62.03;;
39924;SDS011;25592;49.986;11.618;2024-01-16T07:44:06;154.00;;;58.73;;
39924;SDS011;25592;49.986;11.618;2024-01-16T07:46:52;154.00;;;57.67;;
39924;SDS011;25592;49.986;11.618;2024-01-16T07:49:38;154.43;;;58.13;;
39924;SDS011;25592;49.986;11.618;2024-01-16T07:52:23;157.37;;;63.30;;
39924;SDS011;25592;49.986;11.618;2024-01-16T07:55:09;152.90;;;56.70;;
39924;SDS011;25592;49.986;11.618;2024-01-16T07:57:54;156.83;;;62.50;;
39924;SDS011;25592;49.986;11.618;2024-01-16T08:00:40;151.03;;;58.47;;
39924;SDS011;25592;49.986;11.618;2024-01-16T08:03:26;151.73;;;57.83;;
39924;SDS011;25592;49.986;11.618;2024-01-16T08:06:11;150.87;;;56.63;;
39924;SDS011;25592;49.986;11.618;2024-01-16T08:08:57;152.83;;;58.57;;
39924;SDS011;25592;49.986;11.618;2024-01-16T08:11:42;154.73;;;60.70;;
39924;SDS011;25592;49.986;11.618;2024-01-16T08:14:28;152.33;;;57.93;;
39924;SDS011;25592;49.986;11.618;2024-01-16T08:17:13;153.47;;;58.80;;
39924;SDS011;25592;49.986;11.618;2024-01-16T08:19:59;152.77;;;55.70;;
39924;SDS011;25592;49.986;11.618;2024-01-16T08:22:44;154.10;;;59.23;;
39924;SDS011;25592;49.986;11.618;2024-01-16T08:25:29;155.73;;;57.73;;
39924;SDS011;25592;49.986;11.618;2024-01-16T08:28:15;154.53;;;59.07;;
39924;SDS011;25592;49.986;11.618;2024-01-16T08:31:01;152.90;;;56.77;;
39924;SDS011;25592;49.986;11.618;2024-01-16T08:33:47;152.80;;;58.47;;
39924;SDS011;25592;49.986;11.618;2024-01-16T08:36:37;153.73;;;59.70;;
39924;SDS011;25592;49.986;11.618;2024-01-16T08:39:22;153.13;;;57.73;;
39924;SDS011;25592;49.986;11.618;2024-01-16T08:42:09;153.63;;;58.80;;
39924;SDS011;25592;49.986;11.618;2024-01-16T08:44:56;154.53;;;60.80;;
39924;SDS011;25592;49.986;11.618;2024-01-16T08:47:42;154.17;;;58.97;;
39924;SDS011;25592;49.986;11.618;2024-01-16T08:50:28;154.50;;;58.53;;
39924;SDS011;25592;49.986;11.618;2024-01-16T08:53:14;154.67;;;57.67;;
39924;SDS011;25592;49.986;11.618;2024-01-16T08:56:00;156.70;;;60.60;;
39924;SDS011;25592;49.986;11.618;2024-01-16T08:58:45;155.80;;;59.40;;
39924;SDS011;25592;49.986;11.618;2024-01-16T09:01:30;175.27;;;59.67;;
39924;SDS011;25592;49.986;11.618;2024-01-16T09:04:16;156.00;;;58.83;;
39924;SDS011;25592;49.986;11.618;2024-01-16T09:07:02;157.13;;;59.27;;
39924;SDS011;25592;49.986;11.618;2024-01-16T09:09:49;156.43;;;58.10;;
39924;SDS011;25592;49.986;11.618;2024-01-16T09:12:35;161.73;;;62.23;;
39924;SDS011;25592;49.986;11.618;2024-01-16T09:15:20;158.43;;;60.93;;
39924;SDS011;25592;49.986;11.618;2024-01-16T09:18:06;159.00;;;62.40;;
39924;SDS011;25592;49.986;11.618;2024-01-16T09:20:51;157.23;;;59.63;;
39924;SDS011;25592;49.986;11.618;2024-01-16T09:23:37;156.23;;;58.67;;
39924;SDS011;25592;49.986;11.618;2024-01-16T09:26:22;156.70;;;60.60;;
39924;SDS011;25592;49.986;11.618;2024-01-16T09:29:09;155.87;;;58.47;;
39924;SDS011;25592;49.986;11.618;2024-01-16T09:31:55;156.53;;;59.73;;
39924;SDS011;25592;49.986;11.618;2024-01-16T09:34:40;154.03;;;57.23;;
39924;SDS011;25592;49.986;11.618;2024-01-16T09:37:26;157.17;;;61.87;;
39924;SDS011;25592;49.986;11.618;2024-01-16T09:40:11;158.40;;;59.80;;
39924;SDS011;25592;49.986;11.618;2024-01-16T09:42:58;158.23;;;59.33;;
39924;SDS011;25592;49.986;11.618;2024-01-16T09:45:43;155.70;;;57.97;;
39924;SDS011;25592;49.986;11.618;2024-01-16T09:48:32;155.60;;;57.60;;
39924;SDS011;25592;49.986;11.618;2024-01-16T09:51:18;154.57;;;58.50;;
39924;SDS011;25592;49.986;11.618;2024-01-16T09:54:03;154.60;;;57.57;;
39924;SDS011;25592;49.986;11.618;2024-01-16T09:56:53;156.17;;;57.97;;
39924;SDS011;25592;49.986;11.618;2024-01-16T09:59:42;158.03;;;60.30;;
39924;SDS011;25592;49.986;11.618;2024-01-16T10:02:29;160.17;;;61.80;;
39924;SDS011;25592;49.986;11.618;2024-01-16T10:05:14;156.63;;;58.73;;
39924;SDS011;25592;49.986;11.618;2024-01-16T10:08:00;161.37;;;63.23;;
39924;SDS011;25592;49.986;11.618;2024-01-16T10:10:45;156.13;;;57.97;;
39924;SDS011;25592;49.986;11.618;2024-01-16T10:13:34;155.77;;;58.80;;
39924;SDS011;25592;49.986;11.618;2024-01-16T10:16:21;159.47;;;62.73;;
39924;SDS011;25592;49.986;11.618;2024-01-16T10:19:09;160.13;;;61.17;;
39924;SDS011;25592;49.986;11.618;2024-01-16T10:22:02;156.43;;;58.53;;
39924;SDS011;25592;49.986;11.618;2024-01-16T10:24:48;158.27;;;62.60;;
39924;SDS011;25592;49.986;11.618;2024-01-16T10:27:34;157.53;;;60.33;;
39924;SDS011;25592;49.986;11.618;2024-01-16T10:30:23;157.50;;;59.90;;
39924;SDS011;25592;49.986;11.618;2024-01-16T10:33:13;159.33;;;63.30;;
39924;SDS011;25592;49.986;11.618;2024-01-16T10:36:13;158.03;;;60.77;;
39924;SDS011;25592;49.986;11.618;2024-01-16T10:39:03;158.53;;;61.53;;
39924;SDS011;25592;49.986;11.618;2024-01-16T10:41:56;156.37;;;58.67;;
39924;SDS011;25592;49.986;11.618;2024-01-16T10:44:54;154.25;;;57.90;;
39924;SDS011;25592;49.986;11.618;2024-01-16T10:47:40;156.10;;;61.07;;
39924;SDS011;25592;49.986;11.618;2024-01-16T10:50:25;164.53;;;61.80;;
39924;SDS011;25592;49.986;11.618;2024-01-16T10:53:11;171.70;;;61.37;;
39924;SDS011;25592;49.986;11.618;2024-01-16T10:56:01;163.07;;;61.77;;
39924;SDS011;25592;49.986;11.618;2024-01-16T10:58:49;164.30;;;59.43;;
39924;SDS011;25592;49.986;11.618;2024-01-16T11:01:43;164.97;;;59.90;;
39924;SDS011;25592;49.986;11.618;2024-01-16T11:04:30;164.13;;;58.83;;
39924;SDS011;25592;49.986;11.618;2024-01-16T11:07:16;155.67;;;59.03;;
39924;SDS011;25592;49.986;11.618;2024-01-16T11:10:03;144.77;;;58.37;;
39924;SDS011;25592;49.986;11.618;2024-01-16T11:12:48;145.50;;;58.43;;
39924;SDS011;25592;49.986;11.618;2024-01-16T11:15:37;146.73;;;59.37;;
39924;SDS011;25592;49.986;11.618;2024-01-16T11:18:23;144.23;;;56.90;;
39924;SDS011;25592;49.986;11.618;2024-01-16T11:21:12;144.40;;;57.17;;
39924;SDS011;25592;49.986;11.618;2024-01-16T11:24:02;141.35;;;57.78;;
39924;SDS011;25592;49.986;11.618;2024-01-16T11:26:48;142.73;;;55.17;;
39924;SDS011;25592;49.986;11.618;2024-01-16T11:29:34;144.57;;;58.50;;
39924;SDS011;25592;49.986;11.618;2024-01-16T11:32:37;146.53;;;61.47;;
39924;SDS011;25592;49.986;11.618;2024-01-16T11:35:32;147.00;;;58.97;;
39924;SDS011;25592;49.986;11.618;2024-01-16T11:38:18;145.23;;;58.10;;
39924;SDS011;25592;49.986;11.618;2024-01-16T11:41:06;147.30;;;59.67;;
39924;SDS011;25592;49.986;11.618;2024-01-16T11:43:52;147.07;;;60.80;;
39924;SDS011;25592;49.986;11.618;2024-01-16T11:49:49;146.90;;;59.10;;
39924;SDS011;25592;49.986;11.618;2024-01-16T11:55:27;146.33;;;58.33;;
39924;SDS011;25592;49.986;11.618;2024-01-16T11:58:35;145.70;;;57.97;;
39924;SDS011;25592;49.986;11.618;2024-01-16T12:01:36;151.33;;;58.63;;
39924;SDS011;25592;49.986;11.618;2024-01-16T12:04:26;145.93;;;58.27;;
39924;SDS011;25592;49.986;11.618;2024-01-16T12:07:12;147.77;;;59.80;;
39924;SDS011;25592;49.986;11.618;2024-01-16T12:10:00;146.83;;;58.47;;
39924;SDS011;25592;49.986;11.618;2024-01-16T12:12:47;146.50;;;57.87;;
39924;SDS011;25592;49.986;11.618;2024-01-16T12:15:33;148.33;;;58.43;;
39924;SDS011;25592;49.986;11.618;2024-01-16T12:18:19;146.67;;;57.80;;
39924;SDS011;25592;49.986;11.618;2024-01-16T12:21:22;150.63;;;60.73;;
39924;SDS011;25592;49.986;11.618;2024-01-16T12:24:08;146.57;;;57.70;;
39924;SDS011;25592;49.986;11.618;2024-01-16T12:26:58;147.10;;;58.77;;
39924;SDS011;25592;49.986;11.618;2024-01-16T12:29:43;145.60;;;57.53;;
39924;SDS011;25592;49.986;11.618;2024-01-16T12:32:29;148.63;;;62.67;;
39924;SDS011;25592;49.986;11.618;2024-01-16T12:35:19;146.77;;;58.47;;
39924;SDS011;25592;49.986;11.618;2024-01-16T12:38:06;147.97;;;58.93;;
39924;SDS011;25592;49.986;11.618;2024-01-16T12:40:55;147.90;;;58.23;;
39924;SDS011;25592;49.986;11.618;2024-01-16T12:43:40;146.33;;;58.20;;
39924;SDS011;25592;49.986;11.618;2024-01-16T12:46:26;146.70;;;58.93;;
39924;SDS011;25592;49.986;11.618;2024-01-16T12:49:11;144.20;;;54.87;;
39924;SDS011;25592;49.986;11.618;2024-01-16T12:55:06;148.67;;;58.47;;
39924;SDS011;25592;49.986;11.618;2024-01-16T13:00:57;146.73;;;57.50;;
39924;SDS011;25592;49.986;11.618;2024-01-16T13:04:22;147.27;;;57.60;;
39924;SDS011;25592;49.986;11.618;2024-01-16T13:07:08;145.53;;;57.87;;
39924;SDS011;25592;49.986;11.618;2024-01-16T13:10:06;146.50;;;58.57;;
39924;SDS011;25592;49.986;11.618;2024-01-16T13:13:10;160.10;;;61.37;;
39924;SDS011;25592;49.986;11.618;2024-01-16T13:16:03;146.43;;;56.90;;
39924;SDS011;25592;49.986;11.618;2024-01-16T13:19:00;147.37;;;58.00;;
39924;SDS011;25592;49.986;11.618;2024-01-16T13:21:47;146.87;;;56.87;;
39924;SDS011;25592;49.986;11.618;2024-01-16T13:24:33;146.80;;;56.77;;
39924;SDS011;25592;49.986;11.618;2024-01-16T13:27:19;147.60;;;57.43;;
39924;SDS011;25592;49.986;11.618;2024-01-16T13:30:04;147.20;;;57.90;;
39924;SDS011;25592;49.986;11.618;2024-01-16T13:32:51;146.07;;;57.60;;
39924;SDS011;25592;49.986;11.618;2024-01-16T13:35:41;148.13;;;59.93;;
39924;SDS011;25592;49.986;11.618;2024-01-16T13:38:28;153.53;;;59.20;;
39924;SDS011;25592;49.986;11.618;2024-01-16T13:41:13;151.40;;;58.90;;
39924;SDS011;25592;49.986;11.618;2024-01-16T13:43:58;152.10;;;58.67;;
39924;SDS011;25592;49.986;11.618;2024-01-16T13:46:44;153.33;;;61.13;;
39924;SDS011;25592;49.986;11.618;2024-01-16T13:49:49;153.57;;;59.60;;
39924;SDS011;25592;49.986;11.618;2024-01-16T13:52:38;153.13;;;59.20;;
39924;SDS011;25592;49.986;11.618;2024-01-16T13:55:25;151.67;;;58.00;;
39924;SDS011;25592;49.986;11.618;2024-01-16T13:58:11;153.03;;;59.83;;
39924;SDS011;25592;49.986;11.618;2024-01-16T14:00:57;151.73;;;58.47;;
39924;SDS011;25592;49.986;11.618;2024-01-16T14:03:42;153.43;;;61.57;;
39924;SDS011;25592;49.986;11.618;2024-01-16T14:06:31;151.97;;;61.00;;
39924;SDS011;25592;49.986;11.618;2024-01-16T14:09:37;154.30;;;60.70;;
39924;SDS011;25592;49.986;11.618;2024-01-16T14:12:23;155.13;;;63.10;;
39924;SDS011;25592;49.986;11.618;2024-01-16T14:15:09;153.27;;;60.17;;
39924;SDS011;25592;49.986;11.618;2024-01-16T14:18:01;152.37;;;60.73;;
39924;SDS011;25592;49.986;11.618;2024-01-16T14:20:48;151.20;;;57.47;;
39924;SDS011;25592;49.986;11.618;2024-01-16T14:23:33;150.60;;;59.10;;
39924;SDS011;25592;49.986;11.618;2024-01-16T14:26:19;151.47;;;59.63;;
39924;SDS011;25592;49.986;11.618;2024-01-16T14:29:05;148.47;;;57.90;;
39924;SDS011;25592;49.986;11.618;2024-01-16T14:31:51;149.17;;;58.43;;
39924;SDS011;25592;49.986;11.618;2024-01-16T14:34:36;147.60;;;56.53;;
39924;SDS011;25592;49.986;11.618;2024-01-16T14:37:22;149.10;;;58.67;;
39924;SDS011;25592;49.986;11.618;2024-01-16T14:40:07;146.80;;;57.00;;
39924;SDS011;25592;49.986;11.618;2024-01-16T14:42:57;153.30;;;62.03;;
39924;SDS011;25592;49.986;11.618;2024-01-16T14:45:43;148.77;;;59.70;;
39924;SDS011;25592;49.986;11.618;2024-01-16T14:48:28;146.83;;;57.23;;
39924;SDS011;25592;49.986;11.618;2024-01-16T14:51:15;147.77;;;58.43;;
39924;SDS011;25592;49.986;11.618;2024-01-16T14:54:01;146.60;;;57.57;;
39924;SDS011;25592;49.986;11.618;2024-01-16T14:56:46;145.83;;;57.53;;
39924;SDS011;25592;49.986;11.618;2024-01-16T14:59:33;145.83;;;58.00;;
39924;SDS011;25592;49.986;11.618;2024-01-16T15:02:19;147.50;;;61.10;;
39924;SDS011;25592;49.986;11.618;2024-01-16T15:05:05;145.83;;;57.50;;
39924;SDS011;25592;49.986;11.618;2024-01-16T15:07:51;148.53;;;58.63;;
39924;SDS011;25592;49.986;11.618;2024-01-16T15:10:37;151.10;;;61.73;;
39924;SDS011;25592;49.986;11.618;2024-01-16T15:13:23;145.17;;;57.03;;
39924;SDS011;25592;49.986;11.618;2024-01-16T15:16:08;147.13;;;58.10;;
39924;SDS011;25592;49.986;11.618;2024-01-16T15:18:55;145.83;;;56.07;;
39924;SDS011;25592;49.986;11.618;2024-01-16T15:21:42;148.87;;;61.60;;
39924;SDS011;25592;49.986;11.618;2024-01-16T15:24:27;146.63;;;58.40;;
39924;SDS011;25592;49.986;11.618;2024-01-16T15:27:13;146.43;;;57.53;;
39924;SDS011;25592;49.986;11.618;2024-01-16T15:29:59;144.57;;;55.60;;
39924;SDS011;25592;49.986;11.618;2024-01-16T15:32:45;145.80;;;57.37;;
39924;SDS011;25592;49.986;11.618;2024-01-16T15:35:33;144.27;;;55.37;;
39924;SDS011;25592;49.986;11.618;2024-01-16T15:38:19;144.87;;;56.57;;
39924;SDS011;25592;49.986;11.618;2024-01-16T15:41:04;145.87;;;57.27;;
39924;SDS011;25592;49.986;11.618;2024-01-16T15:43:50;145.20;;;55.83;;
39924;SDS011;25592;49.986;11.618;2024-01-16T15:49:39;149.20;;;62.07;;
39924;SDS011;25592;49.986;11.618;2024-01-16T15:52:25;146.93;;;61.90;;
39924;SDS011;25592;49.986;11.618;2024-01-16T15:55:10;151.03;;;61.43;;
39924;SDS011;25592;49.986;11.618;2024-01-16T15:57:55;147.13;;;58.57;;
39924;SDS011;25592;49.986;11.618;2024-01-16T16:00:44;149.57;;;61.33;;
39924;SDS011;25592;49.986;11.618;2024-01-16T16:03:33;149.37;;;62.13;;
39924;SDS011;25592;49.986;11.618;2024-01-16T16:06:19;152.83;;;68.33;;